Time;durP1;ratioP1;P1;durP2;ratioP2;P2;SDS_P1;SDS_P2;PMS_P1;PMS_P2;Temp;Humidity;BMP_temperature;BMP_pressure;BME280_temperature;BME280_humidity;BME280_pressure;Samples;Min_cycle;Max_cycle;Signal;HPM_P1;HPM_P2
2023/07/05 00:00:27;;;;;;;20.60;9.60;;;;;;;15.00;100.00;100239.59;10257319;29;20125;-64
2023/07/05 00:05:27;;;;;;;18.17;9.80;;;;;;;14.98;100.00;100206.28;10256610;29;20035;-64
2023/07/05 00:10:28;;;;;;;14.10;7.75;;;;;;;14.92;100.00;100187.34;10272012;28;20035;-66
2023/07/05 00:15:29;;;;;;;11.65;8.25;;;;;;;14.93;100.00;100159.00;10256439;29;20050;-64
2023/07/05 00:20:29;;;;;;;15.65;9.15;;;;;;;14.97;100.00;100122.84;10256019;28;20501;-63
2023/07/05 00:25:31;;;;;;;17.05;8.50;;;;;;;14.99;100.00;100131.59;10270727;28;20042;-62
2023/07/05 00:30:31;;;;;;;17.10;9.15;;;;;;;15.06;100.00;100115.91;10256926;28;20436;-65
2023/07/05 00:35:32;;;;;;;11.20;7.85;;;;;;;15.12;100.00;100103.19;10254557;29;20062;-64
2023/07/05 00:40:32;;;;;;;9.15;7.28;;;;;;;15.17;100.00;100080.63;10255557;29;20448;-65
2023/07/05 00:45:53;;;;;;;10.75;6.10;;;;;;;15.21;100.00;100049.06;10256695;29;20034;-64
2023/07/05 00:50:55;;;;;;;11.15;7.15;;;;;;;15.25;100.00;100042.88;10255480;28;20118;-64
2023/07/05 00:56:05;;;;;;;9.93;6.05;;;;;;;15.32;100.00;100053.59;10254320;29;20134;-64
2023/07/05 01:01:05;;;;;;;8.88;5.38;;;;;;;15.34;100.00;100073.25;10254879;28;20514;-66
2023/07/05 01:06:07;;;;;;;7.15;4.13;;;;;;;15.22;100.00;100057.00;10258498;29;20127;-64
2023/07/05 01:11:14;;;;;;;3.78;3.30;;;;;;;15.07;100.00;100040.41;10260243;28;20442;-65
2023/07/05 01:16:23;;;;;;;;;;;;;;;14.90;100.00;100051.31;10256123;29;20035;-64
2023/07/05 01:21:29;;;;;;;4.57;3.08;;;;;;;14.74;100.00;100041.19;10257184;29;20362;-66
2023/07/05 01:26:55;;;;;;;8.23;3.70;;;;;;;14.64;100.00;100042.69;10253390;29;20109;-64
2023/07/05 01:32:20;;;;;;;7.75;3.20;;;;;;;14.42;100.00;100061.59;10253797;29;20134;-65
2023/07/05 01:37:27;;;;;;;7.90;2.03;;;;;;;14.44;100.00;100066.78;10251646;29;20031;-64
2023/07/05 01:42:31;;;;;;;4.97;3.30;;;;;;;14.44;100.00;100072.22;10254385;28;20035;-64
2023/07/05 01:47:35;;;;;;;4.97;2.55;;;;;;;14.43;100.00;100073.31;10236823;29;20388;-64
2023/07/05 01:52:45;;;;;;;9.88;2.53;;;;;;;14.44;100.00;100080.41;10251384;29;20058;-63
2023/07/05 01:57:54;;;;;;;7.53;3.75;;;;;;;14.43;100.00;100082.31;10236510;29;20038;-65
2023/07/05 02:02:57;;;;;;;17.35;3.92;;;;;;;14.56;100.00;100073.03;10236995;29;20072;-65
2023/07/05 02:07:59;;;;;;;9.55;3.40;;;;;;;14.60;100.00;100060.56;10236065;29;20031;-65
2023/07/05 02:13:03;;;;;;;4.72;3.00;;;;;;;14.59;100.00;100072.56;10251573;28;20046;-64
2023/07/05 02:18:04;;;;;;;5.63;3.83;;;;;;;14.27;100.00;100080.34;10251782;29;20043;-65
2023/07/05 02:23:04;;;;;;;9.77;3.15;;;;;;;14.08;100.00;100070.69;10250407;29;20031;-64
2023/07/05 02:28:06;;;;;;;12.05;4.72;;;;;;;13.99;100.00;100066.69;10251890;29;20043;-63
2023/07/05 02:33:07;;;;;;;8.75;4.35;;;;;;;13.73;100.00;100055.28;10250412;29;20502;-63
2023/07/05 02:38:07;;;;;;;6.57;4.93;;;;;;;13.58;100.00;100055.75;10252319;29;20055;-64
2023/07/05 02:43:08;;;;;;;4.07;3.63;;;;;;;13.51;100.00;100060.50;10252520;29;20351;-63
2023/07/05 02:48:08;;;;;;;9.43;3.65;;;;;;;13.39;100.00;100052.31;10250179;28;20162;-64
2023/07/05 02:53:09;;;;;;;5.50;3.25;;;;;;;13.38;100.00;100049.88;10266110;28;20122;-64
2023/07/05 02:58:09;;;;;;;5.57;4.20;;;;;;;13.44;100.00;100049.75;10251874;29;20088;-63
2023/07/05 03:03:10;;;;;;;8.50;4.22;;;;;;;13.37;100.00;100056.34;10250859;29;20389;-65
2023/07/05 03:08:10;;;;;;;8.40;3.92;;;;;;;13.30;100.00;100044.75;10249425;29;20416;-64
2023/07/05 03:13:11;;;;;;;5.10;3.53;;;;;;;13.26;100.00;100039.78;10250935;29;20384;-62
2023/07/05 03:18:11;;;;;;;8.85;3.95;;;;;;;13.28;100.00;100030.59;10250528;29;20074;-62
2023/07/05 03:23:12;;;;;;;7.05;3.97;;;;;;;13.26;100.00;100020.75;10250868;28;20435;-61
2023/07/05 03:28:13;;;;;;;7.88;4.57;;;;;;;13.28;100.00;100019.72;10241192;29;20050;-64
2023/07/05 03:33:13;;;;;;;10.00;4.22;;;;;;;13.23;100.00;100007.59;10257571;29;20050;-64
2023/07/05 03:38:13;;;;;;;12.43;5.22;;;;;;;13.18;100.00;100004.78;10241146;29;20063;-63
2023/07/05 03:43:14;;;;;;;5.22;4.43;;;;;;;13.17;100.00;99988.69;10258553;29;20105;-64
2023/07/05 03:48:14;;;;;;;18.50;6.05;;;;;;;13.17;100.00;100005.00;10259279;28;20123;-63
2023/07/05 03:53:15;;;;;;;12.23;3.92;;;;;;;13.12;100.00;100005.75;10256872;29;20134;-64
2023/07/05 03:58:15;;;;;;;3.97;3.28;;;;;;;13.18;100.00;100042.84;10259859;28;20035;-64
2023/07/05 04:03:15;;;;;;;13.68;3.42;;;;;;;13.30;100.00;100052.91;10258468;29;20077;-63
2023/07/05 04:08:16;;;;;;;7.28;2.83;;;;;;;13.33;100.00;100047.00;10257124;28;20456;-63
2023/07/05 04:13:16;;;;;;;9.88;2.13;;;;;;;13.22;100.00;100041.31;10271725;28;20107;-63
2023/07/05 04:18:17;;;;;;;7.38;2.20;;;;;;;13.07;100.00;100034.69;10238784;29;20050;-62
2023/07/05 04:23:17;;;;;;;8.00;4.03;;;;;;;13.04;100.00;100044.94;10255696;29;20122;-62
2023/07/05 04:28:17;;;;;;;10.88;3.60;;;;;;;13.02;100.00;100057.97;10271433;28;20031;-61
2023/07/05 04:33:18;;;;;;;20.65;3.53;;;;;;;12.92;100.00;100051.44;10256026;29;20043;-63
2023/07/05 04:38:18;;;;;;;7.85;3.05;;;;;;;12.92;100.00;100054.16;10270408;28;20043;-64
2023/07/05 04:43:19;;;;;;;5.30;3.38;;;;;;;12.85;100.00;100061.59;10235494;28;20546;-64
2023/07/05 04:48:19;;;;;;;13.65;2.92;;;;;;;12.78;100.00;100078.00;10190741;29;20059;-63
2023/07/05 04:53:24;;;;;;;10.88;3.75;;;;;;;12.65;100.00;100061.88;10254792;28;20454;-61
2023/07/05 04:58:25;;;;;;;10.05;3.47;;;;;;;12.53;100.00;100072.72;10255840;28;20391;-63
2023/07/05 05:03:25;;;;;;;22.58;4.43;;;;;;;12.51;100.00;100067.53;10254301;29;20040;-63
2023/07/05 05:08:26;;;;;;;14.05;3.58;;;;;;;12.38;100.00;100072.28;10254040;29;20039;-63
2023/07/05 05:13:28;;;;;;;9.88;3.80;;;;;;;12.34;100.00;100086.31;10254562;28;20089;-64
2023/07/05 05:18:30;;;;;;;16.75;3.08;;;;;;;12.16;100.00;100091.78;10252826;29;20035;-62
2023/07/05 05:23:31;;;;;;;17.13;4.30;;;;;;;11.96;100.00;100112.88;10252597;29;20459;-65
2023/07/05 05:28:31;;;;;;;17.70;4.15;;;;;;;11.77;100.00;100115.59;10235977;29;20130;-61
2023/07/05 05:33:32;;;;;;;14.10;5.25;;;;;;;11.56;100.00;100119.53;10254868;28;20066;-64
2023/07/05 05:38:33;;;;;;;7.07;3.08;;;;;;;11.35;100.00;100134.31;10253491;28;20074;-63
2023/07/05 05:43:34;;;;;;;9.82;3.15;;;;;;;11.13;100.00;100133.84;10253311;28;20038;-62
2023/07/05 05:48:34;;;;;;;14.57;2.90;;;;;;;10.84;100.00;100127.19;10254611;28;20039;-63
2023/07/05 05:53:35;;;;;;;14.23;2.22;;;;;;;10.73;100.00;100108.94;10252208;29;20059;-63
2023/07/05 05:58:35;;;;;;;7.93;2.40;;;;;;;10.72;100.00;100107.28;10254266;28;20096;-64
2023/07/05 06:03:36;;;;;;;5.53;3.97;;;;;;;10.91;100.00;100105.47;10251698;29;20424;-62
2023/07/05 06:08:36;;;;;;;11.00;3.90;;;;;;;11.18;100.00;100101.50;10252213;28;20039;-64
2023/07/05 06:13:37;;;;;;;12.05;6.10;;;;;;;11.45;100.00;100097.75;10251666;28;20043;-67
2023/07/05 06:18:38;;;;;;;6.28;4.40;;;;;;;11.61;100.00;100121.56;10253656;29;20063;-64
2023/07/05 06:23:39;;;;;;;10.82;3.53;;;;;;;11.61;100.00;100119.72;10266368;28;20126;-64
2023/07/05 06:28:39;;;;;;;19.17;5.45;;;;;;;11.61;100.00;100133.25;10251198;29;20027;-64
2023/07/05 06:33:40;;;;;;;24.48;5.68;;;;;;;11.70;100.00;100150.06;10251675;29;20043;-67
2023/07/05 06:38:40;;;;;;;12.43;6.18;;;;;;;11.74;100.00;100162.16;10250910;29;20090;-67
2023/07/05 06:43:40;;;;;;;18.85;5.75;;;;;;;11.85;100.00;100166.84;10250501;29;20115;-67
2023/07/05 06:48:41;;;;;;;22.55;5.95;;;;;;;11.58;100.00;100146.41;10250909;28;20066;-65
2023/07/05 06:53:43;;;;;;;11.65;3.95;;;;;;;11.54;100.00;100202.97;10251817;29;20051;-67
2023/07/05 06:58:43;;;;;;;14.70;5.15;;;;;;;11.60;100.00;100218.38;10237143;28;20039;-65
2023/07/05 07:03:43;;;;;;;17.98;5.85;;;;;;;11.66;100.00;100211.22;10262892;29;20039;-64
2023/07/05 07:08:44;;;;;;;17.02;5.95;;;;;;;11.82;100.00;100243.22;10264621;28;20031;-64
2023/07/05 07:13:45;;;;;;;17.48;5.75;;;;;;;11.93;100.00;100255.25;10278685;28;20054;-64
2023/07/05 07:18:46;;;;;;;25.55;5.22;;;;;;;12.08;100.00;100303.78;10263053;28;20498;-64
2023/07/05 07:23:47;;;;;;;14.15;5.22;;;;;;;12.18;100.00;100314.13;10262888;28;20357;-66
2023/07/05 07:28:49;;;;;;;12.02;5.70;;;;;;;12.26;100.00;100319.28;10262226;28;20031;-65
2023/07/05 07:33:50;;;;;;;6.82;4.68;;;;;;;12.24;100.00;100311.34;10263661;28;20047;-64
2023/07/05 07:38:50;;;;;;;9.77;4.13;;;;;;;12.26;100.00;100349.97;10261895;28;20395;-65
2023/07/05 07:43:52;;;;;;;8.65;5.20;;;;;;;12.34;100.00;100365.97;10261820;28;20039;-65
2023/07/05 07:48:53;;;;;;;20.67;6.30;;;;;;;12.30;100.00;100407.38;10262135;28;20030;-68
2023/07/05 07:53:54;;;;;;;13.57;4.65;;;;;;;11.94;100.00;100418.91;10260912;29;20086;-66
2023/07/05 07:58:55;;;;;;;14.57;5.65;;;;;;;11.53;100.00;100412.81;10262927;28;20063;-66
2023/07/05 08:03:56;;;;;;;22.95;4.75;;;;;;;11.56;100.00;100401.56;10262951;28;20032;-65
2023/07/05 08:08:57;;;;;;;17.80;5.60;;;;;;;12.12;100.00;100405.41;10262350;28;20463;-64
2023/07/05 08:13:57;;;;;;;13.93;7.13;;;;;;;12.72;100.00;100415.78;10240056;29;20134;-65
2023/07/05 08:18:58;;;;;;;9.80;5.55;;;;;;;12.90;100.00;100451.16;10255394;29;20062;-65
2023/07/05 08:23:58;;;;;;;11.05;4.93;;;;;;;13.32;100.00;100442.38;10240610;29;20031;-65
2023/07/05 08:28:59;;;;;;;9.82;4.22;;;;;;;13.53;100.00;100463.69;10255830;28;20062;-66
2023/07/05 08:33:59;;;;;;;6.88;5.43;;;;;;;13.95;100.00;100475.47;10254951;29;20035;-66
2023/07/05 08:39:03;;;;;;;18.65;5.03;;;;;;;14.63;100.00;100495.25;10256043;29;20065;-67
2023/07/05 08:44:15;;;;;;;7.03;4.13;;;;;;;15.46;100.00;100516.03;10254731;29;20065;-67
2023/07/05 08:49:20;;;;;;;14.38;4.22;;;;;;;15.47;100.00;100520.41;10261165;29;20035;-67
2023/07/05 08:54:20;;;;;;;9.18;3.58;;;;;;;15.26;100.00;100545.59;10247236;29;20495;-64
2023/07/05 08:59:49;;;;;;;9.45;3.78;;;;;;;15.24;100.00;100569.53;10258356;29;20035;-66
2023/07/05 09:04:50;;;;;;;5.63;3.65;;;;;;;15.23;100.00;100579.63;10255602;29;20035;-66
2023/07/05 09:10:10;;;;;;;13.02;4.15;;;;;;;15.24;100.00;100599.53;10254397;29;20031;-65
2023/07/05 09:15:29;;;;;;;7.45;3.47;;;;;;;15.26;100.00;100611.88;10254759;28;20035;-66
2023/07/05 09:20:39;;;;;;;11.70;4.57;;;;;;;15.29;100.00;100630.50;10252852;28;20054;-67
2023/07/05 09:25:41;;;;;;;7.85;3.10;;;;;;;15.57;100.00;100651.66;10254329;29;20039;-67
2023/07/05 09:30:41;;;;;;;16.60;4.03;;;;;;;16.12;100.00;100655.09;10252025;29;20039;-65
2023/07/05 09:35:44;;;;;;;7.15;3.03;;;;;;;17.17;100.00;100673.88;10253322;29;20042;-66
2023/07/05 09:40:46;;;;;;;12.05;2.85;;;;;;;17.19;100.00;100677.19;10221379;29;20031;-65
2023/07/05 09:45:46;;;;;;;23.70;5.25;;;;;;;17.25;100.00;100693.69;10236132;29;20093;-66
2023/07/05 09:50:49;;;;;;;7.65;2.88;;;;;;;17.09;100.00;100701.63;10251935;29;20090;-67
2023/07/05 09:56:10;;;;;;;9.70;4.05;;;;;;;17.22;100.00;100705.97;10254429;28;20059;-68
2023/07/05 10:01:21;;;;;;;6.10;2.70;;;;;;;18.01;100.00;100732.50;10253098;28;20082;-66
2023/07/05 10:06:26;;;;;;;13.15;3.28;;;;;;;18.41;100.00;100734.16;10251426;29;20063;-67
2023/07/05 10:11:28;;;;;;;7.38;3.33;;;;;;;18.19;100.00;100745.94;10253069;28;20076;-66
2023/07/05 10:16:51;;;;;;;8.63;3.15;;;;;;;18.29;100.00;100756.22;10251022;29;20042;-65
2023/07/05 10:21:55;;;;;;;15.00;4.57;;;;;;;18.15;100.00;100777.63;10250630;29;20471;-66
2023/07/05 10:27:09;;;;;;;2.40;2.13;;;;;;;19.01;100.00;100780.75;10250407;29;20031;-65
2023/07/05 10:32:18;;;;;;;13.57;4.65;;;;;;;18.89;100.00;100790.19;10220040;28;20122;-65
2023/07/05 10:37:36;;;;;;;5.15;4.05;;;;;;;19.17;100.00;100805.63;10249779;29;20027;-65
2023/07/05 10:42:37;;;;;;;8.43;2.67;;;;;;;18.58;100.00;100817.22;10233929;29;20379;-66
2023/07/05 10:47:37;;;;;;;11.50;3.05;;;;;;;18.76;100.00;100829.81;10250129;29;20102;-66
2023/07/05 10:52:38;;;;;;;12.65;3.00;;;;;;;19.56;100.00;100843.94;10233321;29;20067;-66
2023/07/05 10:57:49;;;;;;;6.72;3.17;;;;;;;21.03;100.00;100819.53;10233061;29;20075;-65
2023/07/05 11:02:55;;;;;;;6.95;2.92;;;;;;;20.05;100.00;100844.72;10235196;29;20138;-64
2023/07/05 11:07:57;;;;;;;2.75;2.55;;;;;;;20.52;100.00;100863.28;10234883;29;20115;-65
2023/07/05 11:12:58;;;;;;;8.85;3.50;;;;;;;21.31;100.00;100875.25;10248709;29;20029;-64
2023/07/05 11:17:58;;;;;;;8.40;2.50;;;;;;;21.07;100.00;100874.88;10251238;28;20208;-64
2023/07/05 11:22:59;;;;;;;8.30;3.38;;;;;;;21.64;100.00;100873.19;10251050;29;20031;-65
2023/07/05 11:27:59;;;;;;;5.80;2.63;;;;;;;20.29;100.00;100902.13;10249782;29;20135;-66
2023/07/05 11:33:03;;;;;;;2.95;2.53;;;;;;;20.23;100.00;100900.41;10250214;28;20126;-66
2023/07/05 11:38:03;;;;;;;5.97;2.88;;;;;;;20.01;100.00;100908.75;10251184;28;20089;-66
2023/07/05 11:43:23;;;;;;;10.75;2.65;;;;;;;20.84;100.00;100915.50;10249368;28;20345;-66
2023/07/05 11:48:43;;;;;;;5.30;2.55;;;;;;;20.38;100.00;100939.03;10256418;29;20039;-64
2023/07/05 11:53:43;;;;;;;5.40;2.50;;;;;;;20.17;100.00;100947.13;10256019;29;20059;-65
2023/07/05 11:58:46;;;;;;;5.68;2.63;;;;;;;19.89;100.00;100947.38;10256977;29;20047;-66
2023/07/05 12:03:48;;;;;;;6.60;2.90;;;;;;;20.35;100.00;100954.16;10240781;29;20071;-66
2023/07/05 12:08:53;;;;;;;4.55;2.85;;;;;;;21.08;100.00;100965.47;10239856;29;20043;-66
2023/07/05 12:14:02;;;;;;;7.20;3.00;;;;;;;21.83;100.00;100962.53;10255273;29;20154;-65
2023/07/05 12:19:05;;;;;;;7.45;2.55;;;;;;;21.88;100.00;100979.09;10254533;29;20368;-67
2023/07/05 12:24:07;;;;;;;16.30;3.03;;;;;;;20.97;100.00;100983.03;10254319;29;20031;-65
2023/07/05 12:29:20;;;;;;;6.90;2.38;;;;;;;22.79;100.00;100983.09;10255699;28;20036;-65
2023/07/05 12:34:20;;;;;;;6.00;3.00;;;;;;;22.65;100.00;100987.50;10254422;29;20038;-66
2023/07/05 12:39:21;;;;;;;9.02;3.95;;;;;;;21.88;100.00;100998.38;10256366;29;20368;-66
2023/07/05 12:44:23;;;;;;;10.15;3.00;;;;;;;21.34;100.00;101004.16;10255291;29;20040;-66
2023/07/05 12:49:26;;;;;;;2.55;2.35;;;;;;;20.93;100.00;101006.69;10222692;29;20046;-67
2023/07/05 12:54:28;;;;;;;4.18;2.58;;;;;;;21.12;100.00;101032.69;10255373;28;20051;-66
2023/07/05 12:59:34;;;;;;;4.20;2.33;;;;;;;21.04;100.00;101029.59;10252856;28;20070;-66
2023/07/05 13:04:39;;;;;;;9.27;4.03;;;;;;;21.05;100.00;101042.25;10254341;28;20035;-66
2023/07/05 13:09:39;;;;;;;7.55;3.00;;;;;;;21.18;100.00;101041.81;10253786;29;20038;-65
2023/07/05 13:14:44;;;;;;;3.78;3.13;;;;;;;20.71;100.00;101052.72;10253767;29;20042;-66
2023/07/05 13:19:48;;;;;;;4.07;2.53;;;;;;;21.23;100.00;101060.31;10254147;28;20042;-66
2023/07/05 13:24:49;;;;;;;3.13;2.80;;;;;;;21.31;100.00;101059.78;10253878;28;20054;-66
2023/07/05 13:29:50;;;;;;;16.13;2.20;;;;;;;22.20;100.00;101077.38;10236399;29;20471;-67
2023/07/05 13:34:51;;;;;;;10.55;3.10;;;;;;;22.83;100.00;101064.25;10253871;29;20043;-65
2023/07/05 13:39:52;;;;;;;4.55;2.45;;;;;;;23.19;91.92;101072.56;10235982;29;20537;-67
2023/07/05 13:44:52;;;;;;;9.30;3.28;;;;;;;22.21;100.00;101092.84;10236279;29;20036;-66
2023/07/05 13:49:53;;;;;;;11.23;3.35;;;;;;;21.57;100.00;101099.41;10237110;29;20043;-66
2023/07/05 13:54:53;;;;;;;4.88;2.53;;;;;;;22.23;100.00;101104.44;10251296;29;20059;-66
2023/07/05 13:59:54;;;;;;;4.47;2.75;;;;;;;21.43;100.00;101110.06;10252735;29;20047;-66
2023/07/05 14:04:55;;;;;;;3.03;2.42;;;;;;;22.46;99.05;101105.88;10235738;29;20039;-67
2023/07/05 14:09:55;;;;;;;5.50;3.22;;;;;;;22.36;100.00;101120.47;10251049;28;20119;-65
2023/07/05 14:14:55;;;;;;;6.25;3.00;;;;;;;21.51;100.00;101115.06;10250740;29;20043;-67
2023/07/05 14:19:56;;;;;;;3.00;2.80;;;;;;;21.43;100.00;101121.06;10251993;29;20046;-66
2023/07/05 14:24:56;;;;;;;2.85;2.40;;;;;;;21.69;100.00;101127.56;10251392;28;20075;-66
2023/07/05 14:29:57;;;;;;;3.97;2.97;;;;;;;20.95;100.00;101130.28;10252605;28;20039;-67
2023/07/05 14:34:57;;;;;;;2.95;2.75;;;;;;;21.17;100.00;101144.81;10234652;29;20122;-67
2023/07/05 14:39:58;;;;;;;3.70;2.05;;;;;;;20.98;100.00;101143.53;10265967;28;20111;-67
2023/07/05 14:44:58;;;;;;;3.65;2.47;;;;;;;21.30;94.38;101143.53;10234261;29;20063;-67
2023/07/05 14:49:58;;;;;;;7.38;2.20;;;;;;;21.19;93.19;101147.31;10233831;29;20046;-66
2023/07/05 14:54:59;;;;;;;5.00;2.47;;;;;;;20.28;95.09;101128.72;10233700;29;20054;-67
2023/07/05 15:00:00;;;;;;;2.10;2.00;;;;;;;20.40;100.00;101146.75;10252635;29;20102;-68
2023/07/05 15:05:01;;;;;;;5.05;3.40;;;;;;;20.33;100.00;101167.28;10252460;28;20127;-67
2023/07/05 15:10:01;;;;;;;9.27;2.47;;;;;;;20.08;100.00;101170.53;10265946;28;20046;-67
2023/07/05 15:15:07;;;;;;;3.22;2.58;;;;;;;20.74;100.00;101170.53;10255418;28;20046;-67
2023/07/05 15:20:20;;;;;;;5.00;3.00;;;;;;;20.70;100.00;101161.13;10253569;28;20099;-66
2023/07/05 15:25:20;;;;;;;5.85;2.70;;;;;;;20.44;100.00;101177.31;10256744;29;20063;-67
2023/07/05 15:30:21;;;;;;;8.80;2.95;;;;;;;20.12;100.00;101174.44;10242032;29;20066;-67
2023/07/05 15:35:22;;;;;;;4.05;3.35;;;;;;;19.69;100.00;101190.59;10257245;29;20151;-68
2023/07/05 15:40:22;;;;;;;11.48;3.42;;;;;;;19.08;100.00;101191.44;10257104;29;20176;-66
2023/07/05 15:45:25;;;;;;;2.70;1.92;;;;;;;17.59;100.00;101212.09;10258441;29;20086;-64
2023/07/05 15:50:28;;;;;;;4.85;2.28;;;;;;;18.11;100.00;101212.25;10256718;29;20031;-66
2023/07/05 15:55:28;;;;;;;3.25;2.97;;;;;;;18.22;100.00;101208.66;10256202;29;20085;-64
2023/07/05 16:00:31;;;;;;;9.32;3.20;;;;;;;19.00;100.00;101214.66;10256900;29;20122;-63
2023/07/05 16:05:32;;;;;;;3.40;2.35;;;;;;;19.36;100.00;101212.53;10256640;29;20087;-63
2023/07/05 16:10:34;;;;;;;2.40;2.30;;;;;;;19.72;100.00;101209.34;10255572;29;20058;-64
2023/07/05 16:15:35;;;;;;;10.77;3.42;;;;;;;20.08;100.00;101214.53;10256460;29;20046;-64
2023/07/05 16:20:35;;;;;;;11.50;2.53;;;;;;;19.98;100.00;101218.78;10256499;28;20369;-66
2023/07/05 16:25:36;;;;;;;3.03;2.65;;;;;;;19.70;100.00;101229.91;10256191;28;20438;-63
2023/07/05 16:30:36;;;;;;;5.95;2.40;;;;;;;18.82;100.00;101232.13;10258351;28;20526;-64
2023/07/05 16:35:37;;;;;;;8.25;2.67;;;;;;;18.46;100.00;101244.25;10258613;29;20062;-64
2023/07/05 16:40:38;;;;;;;3.00;2.25;;;;;;;18.22;100.00;101244.31;10272434;28;20039;-64
2023/07/05 16:45:38;;;;;;;8.07;2.80;;;;;;;18.08;100.00;101254.66;10255309;28;20040;-66
2023/07/05 16:50:39;;;;;;;3.65;2.40;;;;;;;17.88;100.00;101257.75;10255499;28;20050;-66
2023/07/05 16:55:39;;;;;;;3.58;2.17;;;;;;;17.74;100.00;101260.91;10256262;29;20089;-66
2023/07/05 17:00:40;;;;;;;5.22;3.08;;;;;;;17.81;100.00;101262.53;10256384;28;20043;-65
2023/07/05 17:05:40;;;;;;;3.55;2.53;;;;;;;18.13;100.00;101268.50;10254358;28;20484;-65
2023/07/05 17:10:41;;;;;;;5.20;3.42;;;;;;;18.51;100.00;101255.34;10254784;28;20035;-65
2023/07/05 17:15:42;;;;;;;10.80;2.72;;;;;;;18.59;100.00;101252.22;10254582;29;20039;-66
2023/07/05 17:21:03;;;;;;;4.78;1.95;;;;;;;18.34;100.00;101253.31;10254635;28;20129;-65
2023/07/05 17:26:09;;;;;;;4.85;2.78;;;;;;;18.03;100.00;101265.53;10237217;29;20058;-66
2023/07/05 17:31:17;;;;;;;11.38;3.15;;;;;;;17.71;100.00;101269.59;10255669;28;20039;-65
2023/07/05 17:36:20;;;;;;;3.58;2.80;;;;;;;17.45;100.00;101266.22;10254554;28;20455;-65
2023/07/05 17:41:24;;;;;;;2.90;2.63;;;;;;;17.27;100.00;101280.00;10253432;28;20411;-66
2023/07/05 17:46:26;;;;;;;2.65;2.45;;;;;;;17.16;100.00;101278.88;10220363;29;20468;-66
2023/07/05 17:51:27;;;;;;;2.92;2.63;;;;;;;17.22;100.00;101297.09;10253393;28;20054;-66
2023/07/05 17:56:28;;;;;;;4.45;2.30;;;;;;;16.75;100.00;101302.31;10267590;28;20065;-67
2023/07/05 18:01:28;;;;;;;10.18;2.60;;;;;;;15.81;100.00;101296.09;10252687;29;20058;-67
2023/07/05 18:06:29;;;;;;;9.95;4.82;;;;;;;14.79;100.00;101333.38;10252679;28;20050;-66
2023/07/05 18:11:29;;;;;;;0.63;0.63;;;;;;;13.94;100.00;101361.34;10252886;29;20043;-66
2023/07/05 18:16:30;;;;;;;0.32;0.32;;;;;;;13.76;100.00;101363.00;10252894;29;20463;-66
2023/07/05 18:21:30;;;;;;;2.30;1.30;;;;;;;13.83;100.00;101352.94;10251104;29;20058;-65
2023/07/05 18:26:31;;;;;;;0.68;0.68;;;;;;;13.94;100.00;101355.03;10219422;29;20101;-65
2023/07/05 18:31:31;;;;;;;0.47;0.47;;;;;;;13.91;100.00;101356.31;10252410;29;20121;-65
2023/07/05 18:36:32;;;;;;;0.38;0.38;;;;;;;14.02;100.00;101352.13;10252199;29;20379;-64
2023/07/05 18:41:32;;;;;;;0.70;0.70;;;;;;;14.20;100.00;101329.72;10253241;28;20049;-64
2023/07/05 18:46:33;;;;;;;0.63;0.63;;;;;;;14.25;100.00;101334.50;10266233;28;20360;-64
2023/07/05 18:51:33;;;;;;;0.65;0.65;;;;;;;14.31;100.00;101348.13;10250509;29;20039;-65
2023/07/05 18:56:34;;;;;;;3.00;1.58;;;;;;;14.33;100.00;101358.84;10249555;28;20062;-65
2023/07/05 19:01:35;;;;;;;0.32;0.32;;;;;;;14.21;100.00;101360.50;10252908;28;20399;-63
2023/07/05 19:06:36;;;;;;;0.40;0.40;;;;;;;14.04;100.00;101360.94;10252132;29;20062;-65
2023/07/05 19:11:37;;;;;;;0.50;0.50;;;;;;;13.92;100.00;101360.72;10251785;28;20148;-64
2023/07/05 19:16:37;;;;;;;0.40;0.40;;;;;;;13.87;100.00;101354.22;10251824;29;20051;-67
2023/07/05 19:21:39;;;;;;;0.32;0.32;;;;;;;13.94;100.00;101355.91;10249729;29;20039;-67
2023/07/05 19:26:40;;;;;;;1.85;1.52;;;;;;;14.00;100.00;101361.53;10251450;28;20047;-68
2023/07/05 19:31:41;;;;;;;1.58;1.48;;;;;;;14.02;100.00;101354.84;10249668;28;20455;-68
2023/07/05 19:36:41;;;;;;;0.40;0.40;;;;;;;13.85;100.00;101359.03;10250597;29;20050;-68
2023/07/05 19:41:42;;;;;;;0.30;0.30;;;;;;;13.68;100.00;101369.47;10250904;28;20062;-66
2023/07/05 19:46:43;;;;;;;0.70;0.70;;;;;;;13.57;100.00;101373.63;10248969;29;20039;-68
2023/07/05 19:51:43;;;;;;;2.38;2.17;;;;;;;13.47;100.00;101382.19;10264796;28;20031;-66
2023/07/05 19:56:44;;;;;;;0.30;0.30;;;;;;;13.47;100.00;101386.81;10250151;29;20555;-67
2023/07/05 20:01:44;;;;;;;0.38;0.38;;;;;;;13.53;100.00;101391.44;10249876;28;20051;-66
2023/07/05 20:06:45;;;;;;;0.40;0.40;;;;;;;13.60;100.00;101392.28;10250750;28;20388;-64
2023/07/05 20:11:45;;;;;;;1.20;1.20;;;;;;;13.64;100.00;101409.03;10257468;29;20067;-68
2023/07/05 20:16:52;;;;;;;0.40;0.40;;;;;;;13.65;100.00;101407.97;10257056;29;20411;-65
2023/07/05 20:21:53;;;;;;;0.32;0.32;;;;;;;13.62;100.00;101398.34;10256874;28;20039;-67
2023/07/05 20:26:54;;;;;;;0.17;0.17;;;;;;;13.68;100.00;101405.69;10271077;28;20040;-66
2023/07/05 20:31:54;;;;;;;0.30;0.30;;;;;;;13.69;100.00;101422.88;10257094;28;20043;-65
2023/07/05 20:36:55;;;;;;;0.52;0.52;;;;;;;13.63;100.00;101420.97;10256576;29;20463;-66
2023/07/05 20:41:55;;;;;;;0.43;0.43;;;;;;;13.62;100.00;101419.28;10255364;29;20369;-65
2023/07/05 20:46:56;;;;;;;0.50;0.50;;;;;;;13.67;100.00;101430.41;10256092;28;20119;-66
2023/07/05 20:51:56;;;;;;;0.30;0.30;;;;;;;13.67;100.00;101430.41;10254851;29;20126;-65
2023/07/05 20:56:57;;;;;;;2.53;2.42;;;;;;;13.62;100.00;101431.00;10255449;29;20040;-64
2023/07/05 21:01:58;;;;;;;2.65;2.55;;;;;;;13.55;100.00;101432.03;10269998;28;20035;-65
2023/07/05 21:06:59;;;;;;;0.40;0.40;;;;;;;13.53;100.00;101434.09;10253416;29;20035;-66
2023/07/05 21:11:59;;;;;;;3.05;2.63;;;;;;;13.45;100.00;101424.25;10253440;29;20088;-67
2023/07/05 21:17:00;;;;;;;0.40;0.40;;;;;;;13.41;100.00;101429.25;10255434;28;20042;-63
2023/07/05 21:22:00;;;;;;;0.20;0.20;;;;;;;13.39;100.00;101433.22;10253119;29;20043;-64
2023/07/05 21:27:01;;;;;;;0.30;0.30;;;;;;;13.39;100.00;101430.50;10254544;28;20045;-64
2023/07/05 21:32:02;;;;;;;3.83;1.05;;;;;;;13.38;100.00;101431.56;10255040;29;20043;-64
2023/07/05 21:37:02;;;;;;;1.00;1.00;;;;;;;13.36;100.00;101439.06;10222148;29;20113;-65
2023/07/05 21:42:04;;;;;;;0.93;0.93;;;;;;;13.34;100.00;101443.88;10254350;29;20098;-63
2023/07/05 21:47:05;;;;;;;1.85;1.75;;;;;;;13.27;100.00;101446.53;10251596;29;20072;-65
2023/07/05 21:52:05;;;;;;;0.38;0.38;;;;;;;13.24;100.00;101445.09;10252927;28;20479;-64
2023/07/05 21:57:07;;;;;;;1.25;1.25;;;;;;;13.25;100.00;101437.78;10252058;29;20039;-65
2023/07/05 22:02:07;;;;;;;3.28;2.33;;;;;;;13.31;100.00;101444.28;10253156;28;20127;-65
2023/07/05 22:07:09;;;;;;;0.30;0.30;;;;;;;13.25;100.00;101446.75;10253851;29;20376;-65
2023/07/05 22:12:10;;;;;;;0.40;0.40;;;;;;;13.20;100.00;101451.94;10251802;29;20047;-65
2023/07/05 22:17:10;;;;;;;0.47;0.47;;;;;;;13.15;100.00;101459.03;10235514;29;20439;-64
2023/07/05 22:22:11;;;;;;;0.40;0.40;;;;;;;13.13;100.00;101459.22;10252251;29;20412;-65
2023/07/05 22:27:12;;;;;;;0.70;0.70;;;;;;;13.14;100.00;101458.16;10253291;29;20062;-64
2023/07/05 22:32:12;;;;;;;0.50;0.50;;;;;;;13.24;100.00;101457.78;10258989;28;20035;-64
2023/07/05 22:37:12;;;;;;;0.50;0.50;;;;;;;13.38;100.00;101458.75;10273630;28;20035;-64
2023/07/05 22:42:13;;;;;;;1.00;1.00;;;;;;;13.50;100.00;101459.84;10254716;29;20035;-64
2023/07/05 22:47:13;;;;;;;0.40;0.40;;;;;;;13.59;100.00;101463.22;10252708;28;20555;-65